UBBB/BAK METAR and TAF weather

Enter ICAO airport designator
Station Type Date Time Source
UBBB METAR 2022/01/23 12:30 UTC NOAA

UBBB 231230Z 16014KT 9999 FEW021 10/05 Q1012 NOSIG


Station Type Date Time Source
UBBB Decoded METAR 2022/01/23 12:30 UTC NOAA

Baku / Bine Airport, Azerbaijan (UBBB) 40-27N 050-04E -1M
Jan 23, 2022 - 07:30 AM EST / 2022.01.23 1230 UTC
Wind: from the SSE (160 degrees) at 16 MPH (14 KT):0
Visibility: greater than 7 mile(s):0
Sky conditions: mostly clear
Temperature: 50 F (10 C)
Dew Point: 41 F (5 C)
Relative Humidity: 71%
Pressure (altimeter): 29.88 in. Hg (1012 hPa)
ob: UBBB 231230Z 16014KT 9999 FEW021 10/05 Q1012 NOSIG
cycle: 12

Station Type Date Time Source
UBBB TAF 2022/01/23 12:06 UTC NOAA

TAF TAF UBBB 231103Z 2312/2412 17016KT 9999 SCT023 TX10/2312Z TN04/2403Z
TEMPO 2312/2316 20018KT SCT010
BECMG 2318/2320 18010KT
TEMPO 2320/2405 4000 BR FEW008

Example: see airport list